createdAt,value
2022-10-11T00:01:01.200Z,101450.56
2022-10-11T00:03:36.359Z,101449.14
2022-10-11T00:06:06.630Z,101444.79
2022-10-11T00:08:35.321Z,101439.08
2022-10-11T00:11:07.554Z,101437.64
2022-10-11T00:13:36.044Z,101435.77
2022-10-11T00:16:09.985Z,101436.48
2022-10-11T00:18:39.276Z,101436.19
2022-10-11T00:21:12.160Z,101437.73
2022-10-11T00:23:41.163Z,101438.09
2022-10-11T00:26:11.421Z,101442.27
2022-10-11T00:28:40.595Z,101437.94
2022-10-11T00:31:15.894Z,101433.60
2022-10-11T00:33:44.397Z,101432.38
2022-10-11T00:36:17.386Z,101429.90
2022-10-11T00:38:46.310Z,101427.36
2022-10-11T00:41:16.583Z,101424.37
2022-10-11T00:43:45.249Z,101421.09
2022-10-11T00:46:19.330Z,101416.59
2022-10-11T00:48:53.751Z,101414.98
2022-10-11T00:51:41.827Z,101412.38
2022-10-11T00:54:14.999Z,101412.69
2022-10-11T00:56:45.965Z,101412.34
2022-10-11T00:59:23.507Z,101410.19
2022-10-11T01:01:52.305Z,101408.46
2022-10-11T01:04:20.889Z,101406.17
2022-10-11T01:06:50.735Z,101399.88
2022-10-11T01:09:21.407Z,101394.77
2022-10-11T01:11:51.998Z,101389.70
2022-10-11T01:14:35.433Z,101383.30
2022-10-11T01:17:26.844Z,101380.88
2022-10-11T01:20:26.899Z,101380.58
2022-10-11T01:23:22.436Z,101376.02
2022-10-11T01:26:39.616Z,101378.91
2022-10-11T01:29:49.540Z,101378.95
2022-10-11T01:32:28.056Z,101378.31
2022-10-11T01:35:33.699Z,101380.64
2022-10-11T01:38:13.369Z,101378.47
2022-10-11T01:40:56.093Z,101385.19
2022-10-11T01:43:26.572Z,101385.43
2022-10-11T01:45:57.638Z,101383.53
2022-10-11T01:48:26.015Z,101380.15
2022-10-11T01:51:02.176Z,101375.67
2022-10-11T01:53:45.327Z,101377.95
2022-10-11T01:56:57.434Z,101375.98
2022-10-11T02:00:09.733Z,101372.77
2022-10-11T02:02:41.738Z,101371.33
2022-10-11T02:05:20.421Z,101373.50
2022-10-11T02:08:23.740Z,101370.51
2022-10-11T02:11:23.822Z,101364.87
2022-10-11T02:14:19.612Z,101366.80
2022-10-11T02:17:01.424Z,101363.95
2022-10-11T02:19:36.023Z,101361.15
2022-10-11T02:22:22.204Z,101362.64
2022-10-11T02:24:56.155Z,101362.16
2022-10-11T02:27:30.574Z,101361.08
2022-10-11T02:30:02.480Z,101359.45
2022-10-11T02:32:33.134Z,101360.23
2022-10-11T02:35:02.967Z,101366.21
2022-10-11T02:37:53.356Z,101364.59
2022-10-11T02:40:31.240Z,101363.95
2022-10-11T02:43:05.602Z,101360.21
2022-10-11T02:45:48.878Z,101364.04
2022-10-11T02:48:18.146Z,101357.55
2022-10-11T02:50:46.526Z,101355.30
2022-10-11T02:53:14.725Z,101353.56
2022-10-11T02:55:42.869Z,101353.92
2022-10-11T02:58:11.013Z,101354.15
2022-10-11T03:00:39.450Z,101355.98
2022-10-11T03:03:07.671Z,101355.98
2022-10-11T03:05:40.746Z,101356.38
2022-10-11T03:08:10.941Z,101358.39
2022-10-11T03:10:40.279Z,101355.41
2022-10-11T03:13:08.881Z,101355.30
2022-10-11T03:15:37.277Z,101357.53
2022-10-11T03:18:05.565Z,101353.50
2022-10-11T03:20:33.765Z,101354.14
2022-10-11T03:23:01.877Z,101350.06
2022-10-11T03:25:30.117Z,101347.38
2022-10-11T03:27:58.372Z,101346.84
2022-10-11T03:30:27.291Z,101345.38
2022-10-11T03:32:55.501Z,101342.83
2022-10-11T03:35:23.708Z,101340.98
2022-10-11T03:37:51.884Z,101338.80
2022-10-11T03:40:20.149Z,101338.34
2022-10-11T03:42:48.337Z,101337.92
2022-10-11T03:45:16.594Z,101335.41
2022-10-11T03:47:44.822Z,101335.15
2022-10-11T03:50:12.973Z,101331.03
2022-10-11T03:52:41.121Z,101331.80
2022-10-11T03:55:09.480Z,101328.77
2022-10-11T03:57:37.683Z,101325.17
2022-10-11T04:00:07.318Z,101324.80
2022-10-11T04:02:39.075Z,101322.66
2022-10-11T04:05:08.170Z,101325.80
2022-10-11T04:07:36.368Z,101322.88
2022-10-11T04:10:05.933Z,101325.94
2022-10-11T04:12:34.996Z,101323.56
2022-10-11T04:15:03.773Z,101326.83
2022-10-11T04:17:31.984Z,101327.12
2022-10-11T04:20:00.476Z,101327.19
2022-10-11T04:22:28.676Z,101324.41
2022-10-11T04:24:56.798Z,101326.52
2022-10-11T04:27:28.371Z,101332.17
2022-10-11T04:29:56.720Z,101331.80
2022-10-11T04:32:24.929Z,101334.48
2022-10-11T04:34:53.294Z,101329.36
2022-10-11T04:37:21.849Z,101328.98
2022-10-11T04:39:50.066Z,101328.58
2022-10-11T04:42:18.325Z,101327.77
2022-10-11T04:44:46.876Z,101327.06
2022-10-11T04:47:15.198Z,101326.44
2022-10-11T04:49:43.361Z,101324.96
2022-10-11T04:52:11.611Z,101326.11
2022-10-11T04:54:39.753Z,101323.29
2022-10-11T04:57:07.966Z,101326.74
2022-10-11T04:59:36.128Z,101329.66
2022-10-11T05:02:04.367Z,101331.52
2022-10-11T05:04:32.893Z,101333.13
2022-10-11T05:07:01.131Z,101329.78
2022-10-11T05:09:29.299Z,101334.21
2022-10-11T05:11:57.729Z,101333.98
2022-10-11T05:14:25.960Z,101335.11
2022-10-11T05:16:54.108Z,101337.86
2022-10-11T05:19:22.390Z,101337.55
2022-10-11T05:21:50.698Z,101339.38
2022-10-11T05:24:18.889Z,101338.08
2022-10-11T05:26:47.076Z,101337.80
2022-10-11T05:29:15.205Z,101336.89
2022-10-11T05:31:43.406Z,101335.19
2022-10-11T05:34:11.606Z,101335.86
2022-10-11T05:36:39.918Z,101334.77
2022-10-11T05:39:08.238Z,101331.44
2022-10-11T05:41:36.608Z,101332.09
2022-10-11T05:44:05.233Z,101336.82
2022-10-11T05:46:33.547Z,101336.95
2022-10-11T05:49:01.992Z,101337.66
2022-10-11T05:51:30.521Z,101339.48
2022-10-11T05:53:58.821Z,101339.27
2022-10-11T05:56:27.266Z,101342.52
2022-10-11T05:58:59.944Z,101341.73
2022-10-11T06:01:30.578Z,101341.85
2022-10-11T06:03:58.930Z,101345.26
2022-10-11T06:06:27.250Z,101347.38
2022-10-11T06:08:55.628Z,101349.23
2022-10-11T06:11:27.637Z,101345.48
2022-10-11T06:14:00.643Z,101344.36
2022-10-11T06:16:29.022Z,101347.75
2022-10-11T06:18:57.764Z,101349.02
2022-10-11T06:21:26.411Z,101348.09
2022-10-11T06:24:00.814Z,101347.29
2022-10-11T06:26:30.509Z,101340.52
2022-10-11T06:28:59.252Z,101341.06
2022-10-11T06:31:27.716Z,101339.09
2022-10-11T06:33:56.091Z,101343.55
2022-10-11T06:36:24.979Z,101342.84
2022-10-11T06:38:55.098Z,101341.26
2022-10-11T06:41:26.911Z,101342.83
2022-10-11T06:43:56.274Z,101343.98
2022-10-11T06:46:27.696Z,101352.19
2022-10-11T06:48:56.607Z,101354.88
2022-10-11T06:51:25.911Z,101348.55
2022-10-11T06:53:57.984Z,101351.61
2022-10-11T06:56:28.095Z,101355.34
2022-10-11T06:58:58.576Z,101352.43
2022-10-11T07:01:28.112Z,101352.48
2022-10-11T07:03:58.151Z,101352.09
2022-10-11T07:06:29.397Z,101350.51
2022-10-11T07:09:00.417Z,101350.54
2022-10-11T07:11:29.651Z,101355.23
2022-10-11T07:14:04.353Z,101349.98
2022-10-11T07:16:32.765Z,101350.88
2022-10-11T07:19:03.336Z,101354.37
2022-10-11T07:21:34.210Z,101354.95
2022-10-11T07:24:03.329Z,101354.19
2022-10-11T07:26:38.231Z,101350.73
2022-10-11T07:29:09.610Z,101345.84
2022-10-11T07:31:43.655Z,101343.53
2022-10-11T07:34:12.185Z,101346.91
2022-10-11T07:36:40.574Z,101348.30
2022-10-11T07:39:08.981Z,101347.58
2022-10-11T07:41:43.108Z,101346.23
2022-10-11T07:44:14.853Z,101339.36
2022-10-11T07:46:43.014Z,101337.63
2022-10-11T07:49:11.216Z,101341.28
2022-10-11T07:51:39.400Z,101339.81
2022-10-11T07:54:07.757Z,101334.82
2022-10-11T07:56:38.082Z,101333.32
2022-10-11T07:59:06.550Z,101327.52
2022-10-11T08:01:34.781Z,101327.41
2022-10-11T08:04:03.270Z,101326.81
2022-10-11T08:06:32.840Z,101325.29
2022-10-11T08:09:02.144Z,101327.06
2022-10-11T08:11:37.989Z,101328.80
2022-10-11T08:14:11.300Z,101329.52
2022-10-11T08:16:39.915Z,101326.96
2022-10-11T08:19:08.137Z,101326.17
2022-10-11T08:21:36.483Z,101324.48
2022-10-11T08:24:06.204Z,101322.80
2022-10-11T08:26:34.967Z,101325.02
2022-10-11T08:29:04.101Z,101325.62
2022-10-11T08:31:34.084Z,101328.13
2022-10-11T08:34:02.872Z,101325.38
2022-10-11T08:36:31.240Z,101323.01
2022-10-11T08:39:01.206Z,101317.08
2022-10-11T08:41:46.353Z,101316.73
2022-10-11T08:45:05.859Z,101315.86
2022-10-11T08:47:37.142Z,101312.64
2022-10-11T08:50:08.339Z,101310.45
2022-10-11T08:53:04.209Z,101310.96
2022-10-11T08:55:44.206Z,101307.54
2022-10-11T08:58:18.087Z,101305.27
2022-10-11T09:00:48.342Z,101303.05
2022-10-11T09:03:39.572Z,101300.54
2022-10-11T09:06:54.948Z,101297.59
2022-10-11T09:09:38.715Z,101298.25
2022-10-11T09:12:45.043Z,101291.70
2022-10-11T09:15:38.338Z,101287.89
2022-10-11T09:18:58.231Z,101288.79
2022-10-11T09:22:08.597Z,101287.58
2022-10-11T09:25:06.025Z,101284.60
2022-10-11T09:28:04.487Z,101277.64
2022-10-11T09:30:33.533Z,101279.38
2022-10-11T09:33:24.797Z,101279.27
2022-10-11T09:35:53.090Z,101277.06
2022-10-11T09:38:54.578Z,101272.73
2022-10-11T09:41:52.606Z,101271.20
2022-10-11T09:44:27.420Z,101272.38
2022-10-11T09:46:57.468Z,101268.45
2022-10-11T09:49:34.070Z,101268.69
2022-10-11T09:52:07.111Z,101267.14
2022-10-11T09:54:48.220Z,101266.70
2022-10-11T09:57:31.960Z,101265.63
2022-10-11T10:00:19.814Z,101268.23
2022-10-11T10:02:51.626Z,101263.84
2022-10-11T10:05:31.685Z,101260.65
2022-10-11T10:08:07.208Z,101258.11
2022-10-11T10:10:41.043Z,101258.84
2022-10-11T10:13:41.851Z,101252.35
2022-10-11T10:16:30.548Z,101249.71
2022-10-11T10:19:06.867Z,101245.30
2022-10-11T10:21:46.746Z,101244.35
2022-10-11T10:24:33.553Z,101242.91
2022-10-11T10:27:10.503Z,101239.94
2022-10-11T10:29:39.623Z,101237.17
2022-10-11T10:32:23.778Z,101232.59
2022-10-11T10:35:09.586Z,101233.36
2022-10-11T10:37:56.830Z,101227.46
2022-10-11T10:40:43.665Z,101228.63
2022-10-11T10:43:18.156Z,101229.83
2022-10-11T10:46:06.107Z,101223.38
2022-10-11T10:49:28.422Z,101223.06
2022-10-11T10:51:48.318Z,101222.75
2022-10-11T10:54:34.965Z,101211.71
2022-10-11T10:57:28.621Z,101208.70
2022-10-11T11:00:19.647Z,101205.86
2022-10-11T11:03:11.340Z,101205.19
2022-10-11T11:06:07.799Z,101204.55
2022-10-11T11:09:10.167Z,101203.06
2022-10-11T11:11:53.128Z,101204.89
2022-10-11T11:14:29.395Z,101202.69
2022-10-11T11:17:19.401Z,101197.88
2022-10-11T11:20:18.791Z,101196.48
2022-10-11T11:23:11.646Z,101193.28
2022-10-11T11:25:59.254Z,101194.25
2022-10-11T11:28:50.434Z,101191.58
2022-10-11T11:31:49.936Z,101190.60
2022-10-11T11:34:37.129Z,101191.55
2022-10-11T11:37:32.390Z,101188.36
2022-10-11T11:40:15.649Z,101191.11
2022-10-11T11:42:59.727Z,101187.43
2022-10-11T11:45:45.713Z,101184.44
2022-10-11T11:48:27.217Z,101186.65
2022-10-11T11:51:21.996Z,101183.42
2022-10-11T11:54:28.311Z,101179.91
2022-10-11T11:57:23.897Z,101177.25
2022-10-11T12:00:03.844Z,101177.73
2022-10-11T12:02:48.055Z,101176.48
2022-10-11T12:05:22.004Z,101174.98
2022-10-11T12:08:28.182Z,101176.23
2022-10-11T12:11:01.420Z,101178.63
2022-10-11T12:13:37.560Z,101174.76
2022-10-11T12:16:15.710Z,101176.08
2022-10-11T12:19:03.943Z,101174.10
2022-10-11T12:21:37.163Z,101167.59
2022-10-11T12:24:20.615Z,101167.24
2022-10-11T12:26:54.366Z,101156.54
2022-10-11T12:29:46.258Z,101157.69
2022-10-11T12:32:36.273Z,101154.81
2022-10-11T12:35:32.337Z,101158.75
2022-10-11T12:38:28.890Z,101156.83
2022-10-11T12:41:09.086Z,101155.33
2022-10-11T12:43:49.311Z,101157.65
2022-10-11T12:47:10.187Z,101159.20
2022-10-11T12:50:02.836Z,101151.45
2022-10-11T12:52:50.918Z,101152.86
2022-10-11T12:55:52.169Z,101152.90
2022-10-11T12:58:44.149Z,101150.39
2022-10-11T13:01:25.573Z,101151.68
2022-10-11T13:04:05.145Z,101154.57
2022-10-11T13:06:44.621Z,101154.33
2022-10-11T13:09:39.350Z,101149.45
2022-10-11T13:12:21.566Z,101150.36
2022-10-11T13:15:03.994Z,101151.41
2022-10-11T13:17:38.627Z,101148.41
2022-10-11T13:20:18.611Z,101144.14
2022-10-11T13:22:53.391Z,101142.77
2022-10-11T13:25:27.279Z,101139.55
2022-10-11T13:27:57.816Z,101134.27
2022-10-11T13:30:31.772Z,101132.21
2022-10-11T13:33:01.792Z,101128.32
2022-10-11T13:35:32.580Z,101130.11
2022-10-11T13:38:02.786Z,101127.17
2022-10-11T13:40:31.754Z,101124.87
2022-10-11T13:43:00.325Z,101122.02
2022-10-11T13:45:30.804Z,101117.02
2022-10-11T13:47:59.371Z,101114.11
2022-10-11T13:50:35.375Z,101115.63
2022-10-11T13:53:23.598Z,101115.84
2022-10-11T13:55:59.461Z,101113.60
2022-10-11T13:58:30.325Z,101112.14
2022-10-11T14:01:07.924Z,101114.05
2022-10-11T14:04:02.773Z,101113.19
2022-10-11T14:06:58.267Z,101115.33
2022-10-11T14:09:36.997Z,101110.30
2022-10-11T14:12:44.394Z,101115.04
2022-10-11T14:15:27.365Z,101108.92
2022-10-11T14:17:55.616Z,101109.00
2022-10-11T14:20:41.820Z,101105.54
2022-10-11T14:23:10.039Z,101106.08
2022-10-11T14:25:38.253Z,101107.33
2022-10-11T14:28:13.083Z,101107.73
2022-10-11T14:30:42.395Z,101104.05
2022-10-11T14:33:12.064Z,101104.45
2022-10-11T14:35:41.745Z,101102.71
2022-10-11T14:38:12.127Z,101101.02
2022-10-11T14:40:40.482Z,101101.38
2022-10-11T14:43:08.629Z,101101.77
2022-10-11T14:45:36.974Z,101097.90
2022-10-11T14:48:05.331Z,101099.91
2022-10-11T14:50:51.966Z,101099.92
2022-10-11T14:53:20.457Z,101097.88
2022-10-11T14:55:49.119Z,101099.81
2022-10-11T14:58:18.374Z,101102.08
2022-10-11T15:00:46.625Z,101101.36
2022-10-11T15:03:15.531Z,101104.66
2022-10-11T15:05:43.715Z,101101.77
2022-10-11T15:08:12.216Z,101106.92
2022-10-11T15:10:41.494Z,101112.84
2022-10-11T15:13:10.224Z,101110.27
2022-10-11T15:15:41.539Z,101107.73
2022-10-11T15:18:13.658Z,101110.21
2022-10-11T15:20:45.106Z,101112.64
2022-10-11T15:23:13.990Z,101118.48
2022-10-11T15:25:42.885Z,101123.19
2022-10-11T15:28:31.399Z,101123.61
2022-10-11T15:31:00.725Z,101125.59
2022-10-11T15:33:29.062Z,101127.15
2022-10-11T15:35:57.302Z,101130.09
2022-10-11T15:38:26.069Z,101130.15
2022-10-11T15:40:54.667Z,101133.13
2022-10-11T15:43:24.904Z,101129.68
2022-10-11T15:45:55.508Z,101133.38
2022-10-11T15:48:26.465Z,101137.25
2022-10-11T15:50:55.477Z,101141.52
2022-10-11T15:53:30.125Z,101142.75
2022-10-11T15:56:03.793Z,101142.11
2022-10-11T15:58:41.658Z,101140.13
2022-10-11T16:01:18.863Z,101147.63
2022-10-11T16:03:49.307Z,101146.00
2022-10-11T16:06:18.980Z,101148.13
2022-10-11T16:08:48.051Z,101150.47
2022-10-11T16:11:16.287Z,101159.08
2022-10-11T16:13:45.239Z,101160.92
2022-10-11T16:16:13.457Z,101161.08
2022-10-11T16:18:41.631Z,101164.73
2022-10-11T16:21:13.457Z,101165.57
2022-10-11T16:23:42.122Z,101165.18
2022-10-11T16:26:16.374Z,101167.23
2022-10-11T16:28:44.638Z,101166.80
2022-10-11T16:31:20.680Z,101172.28
2022-10-11T16:33:50.267Z,101175.91
2022-10-11T16:36:32.544Z,101176.90
2022-10-11T16:39:03.832Z,101178.01
2022-10-11T16:41:32.002Z,101176.00
2022-10-11T16:44:00.325Z,101175.92
2022-10-11T16:46:28.733Z,101176.02
2022-10-11T16:48:57.026Z,101180.10
2022-10-11T16:51:25.417Z,101176.71
2022-10-11T16:53:53.679Z,101176.73
2022-10-11T16:56:24.210Z,101179.54
2022-10-11T16:58:53.514Z,101177.21
2022-10-11T17:01:22.421Z,101173.60
2022-10-11T17:03:51.255Z,101173.58
2022-10-11T17:06:20.038Z,101173.77
2022-10-11T17:08:48.218Z,101167.09
2022-10-11T17:11:21.758Z,101170.30
2022-10-11T17:13:53.307Z,101172.46
2022-10-11T17:16:22.838Z,101171.35
2022-10-11T17:18:51.046Z,101171.16
2022-10-11T17:21:21.867Z,101168.79
2022-10-11T17:23:50.656Z,101171.44
2022-10-11T17:26:26.268Z,101164.20
2022-10-11T17:28:57.484Z,101166.66
2022-10-11T17:31:26.581Z,101167.16
2022-10-11T17:33:57.648Z,101166.88
2022-10-11T17:36:34.607Z,101170.20
2022-10-11T17:39:07.811Z,101171.06
2022-10-11T17:41:36.345Z,101170.62
2022-10-11T17:44:05.135Z,101171.50
2022-10-11T17:46:34.125Z,101171.23
2022-10-11T17:49:07.215Z,101176.16
2022-10-11T17:51:37.222Z,101176.23
2022-10-11T17:54:06.413Z,101174.59
2022-10-11T17:56:38.296Z,101174.95
2022-10-11T17:59:08.257Z,101175.24
2022-10-11T18:01:36.923Z,101178.63
2022-10-11T18:04:06.376Z,101175.05
2022-10-11T18:06:39.753Z,101179.86
2022-10-11T18:09:08.107Z,101179.61
2022-10-11T18:11:36.394Z,101180.04
2022-10-11T18:14:05.395Z,101180.71
2022-10-11T18:16:34.871Z,101181.92
2022-10-11T18:19:07.189Z,101185.83
2022-10-11T18:21:37.779Z,101182.52
2022-10-11T18:24:15.166Z,101182.85
2022-10-11T18:26:45.411Z,101183.73
2022-10-11T18:29:15.497Z,101182.89
2022-10-11T18:31:43.768Z,101179.10
2022-10-11T18:34:13.929Z,101180.57
2022-10-11T18:36:42.494Z,101182.92
2022-10-11T18:39:14.366Z,101180.36
2022-10-11T18:41:44.676Z,101179.96
2022-10-11T18:44:15.485Z,101184.84
2022-10-11T18:46:44.874Z,101184.27
2022-10-11T18:49:13.822Z,101183.23
2022-10-11T18:51:43.194Z,101184.46
2022-10-11T18:54:15.353Z,101183.37
2022-10-11T18:56:46.673Z,101182.23
2022-10-11T18:59:15.121Z,101185.34
2022-10-11T19:01:45.024Z,101184.34
2022-10-11T19:04:16.105Z,101184.48
2022-10-11T19:06:47.889Z,101186.35
2022-10-11T19:09:24.823Z,101191.25
2022-10-11T19:11:55.890Z,101191.33
2022-10-11T19:14:31.355Z,101191.89
2022-10-11T19:17:00.003Z,101191.43
2022-10-11T19:19:29.900Z,101187.45
2022-10-11T19:21:58.161Z,101190.85
2022-10-11T19:24:28.877Z,101188.63
2022-10-11T19:27:02.253Z,101190.98
2022-10-11T19:29:32.636Z,101186.54
2022-10-11T19:32:03.607Z,101187.45
2022-10-11T19:34:32.806Z,101190.06
2022-10-11T19:37:01.410Z,101190.34
2022-10-11T19:39:30.012Z,101193.53
2022-10-11T19:41:58.286Z,101198.23
2022-10-11T19:44:26.906Z,101197.79
2022-10-11T19:46:55.145Z,101198.54
2022-10-11T19:49:25.832Z,101198.83
2022-10-11T19:51:55.649Z,101201.19
2022-10-11T19:54:24.215Z,101201.35
2022-10-11T19:56:52.760Z,101202.19
2022-10-11T19:59:21.078Z,101200.27
2022-10-11T20:01:53.047Z,101202.58
2022-10-11T20:07:10.803Z,101206.41
2022-10-11T20:09:39.124Z,101212.14
2022-10-11T20:12:07.826Z,101209.86
2022-10-11T20:14:35.979Z,101210.68
2022-10-11T20:17:04.187Z,101207.48
2022-10-11T20:19:32.551Z,101207.36
2022-10-11T20:22:01.296Z,101205.84
2022-10-11T20:24:33.625Z,101207.91
2022-10-11T20:27:05.099Z,101206.48
2022-10-11T20:29:33.852Z,101206.90
2022-10-11T20:32:01.982Z,101205.98
2022-10-11T20:34:30.733Z,101207.15
2022-10-11T20:36:59.581Z,101209.33
2022-10-11T20:39:27.750Z,101210.04
2022-10-11T20:41:55.952Z,101212.02
2022-10-11T20:44:24.228Z,101208.30
2022-10-11T20:46:52.507Z,101215.11
2022-10-11T20:49:20.778Z,101211.98
2022-10-11T20:51:49.341Z,101213.13
2022-10-11T20:54:17.616Z,101209.77
2022-10-11T20:56:46.116Z,101207.60
2022-10-11T20:59:14.264Z,101209.46
2022-10-11T21:01:42.817Z,101206.63
2022-10-11T21:04:20.630Z,101205.14
2022-10-11T21:06:49.345Z,101205.02
2022-10-11T21:09:17.762Z,101208.11
2022-10-11T21:11:46.460Z,101213.17
2022-10-11T21:14:15.110Z,101215.77
2022-10-11T21:16:43.442Z,101217.56
2022-10-11T21:19:15.177Z,101218.40
2022-10-11T21:21:46.420Z,101219.95
2022-10-11T21:24:16.596Z,101221.32
2022-10-11T21:26:44.807Z,101219.60
2022-10-11T21:29:13.054Z,101218.54
2022-10-11T21:31:41.278Z,101221.20
2022-10-11T21:34:09.433Z,101220.95
2022-10-11T21:36:37.796Z,101220.66
2022-10-11T21:39:05.936Z,101223.13
2022-10-11T21:41:34.156Z,101220.82
2022-10-11T21:44:02.441Z,101222.10
2022-10-11T21:47:01.275Z,101222.05
2022-10-11T21:49:20.525Z,101223.09
2022-10-11T21:51:48.894Z,101224.69
2022-10-11T21:54:19.296Z,101223.23
2022-10-11T21:56:47.575Z,101226.69
2022-10-11T21:59:16.019Z,101228.66
2022-10-11T22:01:44.293Z,101233.02
2022-10-11T22:04:12.754Z,101230.80
2022-10-11T22:06:40.956Z,101234.48
2022-10-11T22:09:09.269Z,101231.23
2022-10-11T22:11:37.493Z,101231.71
2022-10-11T22:14:05.780Z,101231.66
2022-10-11T22:16:36.255Z,101237.73
2022-10-11T22:19:04.727Z,101238.93
2022-10-11T22:21:32.904Z,101240.58
2022-10-11T22:24:01.215Z,101238.08
2022-10-11T22:26:31.404Z,101240.61
2022-10-11T22:29:00.687Z,101242.35
2022-10-11T22:31:30.226Z,101241.42
2022-10-11T22:34:00.584Z,101241.44
2022-10-11T22:36:33.873Z,101237.80
2022-10-11T22:39:07.780Z,101236.05
2022-10-11T22:41:37.003Z,101238.78
2022-10-11T22:44:05.937Z,101234.83
2022-10-11T22:46:34.149Z,101233.30
2022-10-11T22:49:02.421Z,101234.56
2022-10-11T22:51:30.679Z,101238.17
2022-10-11T22:53:59.001Z,101241.02
2022-10-11T22:56:27.263Z,101242.81
2022-10-11T22:58:55.512Z,101246.36
2022-10-11T23:01:23.689Z,101247.46
2022-10-11T23:03:51.974Z,101242.42
2022-10-11T23:06:20.269Z,101249.10
2022-10-11T23:08:48.619Z,101246.70
2022-10-11T23:11:16.795Z,101250.30
2022-10-11T23:13:44.959Z,101249.41
2022-10-11T23:16:14.061Z,101248.29
2022-10-11T23:18:42.308Z,101254.57
2022-10-11T23:21:10.954Z,101251.96
2022-10-11T23:23:39.958Z,101257.80
2022-10-11T23:26:15.161Z,101260.23
2022-10-11T23:28:43.996Z,101260.45
2022-10-11T23:31:16.679Z,101265.55
2022-10-11T23:33:46.268Z,101266.96
2022-10-11T23:36:24.187Z,101267.92
2022-10-11T23:38:57.923Z,101267.27
2022-10-11T23:41:30.630Z,101269.17
2022-10-11T23:43:58.970Z,101270.13
2022-10-11T23:46:27.429Z,101270.86
2022-10-11T23:48:55.772Z,101270.21
2022-10-11T23:51:24.098Z,101267.59
2022-10-11T23:53:52.529Z,101266.80
2022-10-11T23:56:20.825Z,101269.53
2022-10-11T23:58:49.010Z,101266.12
